Time;durP1;ratioP1;P1;durP2;ratioP2;P2;SDS_P1;SDS_P2;PMS_P1;PMS_P2;Temp;Humidity;BMP_temperature;BMP_pressure;BME280_temperature;BME280_humidity;BME280_pressure;Samples;Min_cycle;Max_cycle;Signal;HPM_P1;HPM_P2
2023/06/20 03:25:09;;;;;;;;;;;;;;;20.88;60.73;101042.88;5036753;28;19936;-65
2023/06/20 03:27:34;;;;;;;;;;;;;;;20.84;60.83;101039.00;5030570;28;19921;-65
2023/06/20 03:30:00;;;;;;;;;;;;;;;20.81;60.86;101032.16;5021609;28;19917;-65
2023/06/20 03:32:25;;;;;;;;;;;;;;;20.79;61.05;101037.00;5037051;28;19921;-65
2023/06/20 03:34:50;;;;;;;;;;;;;;;20.76;60.87;101040.16;5042939;28;19924;-65
2023/06/20 03:37:16;;;;;;;;;;;;;;;20.75;60.97;101040.38;5047650;28;20015;-65
2023/06/20 03:39:41;;;;;;;;;;;;;;;20.72;60.57;101050.59;5031269;28;19917;-65
2023/06/20 03:42:06;;;;;;;;;;;;;;;20.72;60.70;101052.47;5040615;28;19912;-65
2023/06/20 03:44:31;;;;;;;;;;;;;;;20.70;60.51;101051.88;5038536;28;19917;-65
2023/06/20 03:46:56;;;;;;;;;;;;;;;20.64;60.92;101061.75;5037543;28;19970;-65
2023/06/20 03:49:22;;;;;;;;;;;;;;;20.57;61.14;101066.44;5035598;28;19913;-65
2023/06/20 03:51:47;;;;;;;;;;;;;;;20.54;61.19;101061.50;5040302;28;19978;-65
2023/06/20 03:54:12;;;;;;;;;;;;;;;20.51;61.18;101069.19;5032934;28;19917;-65
2023/06/20 03:56:37;;;;;;;;;;;;;;;20.49;61.37;101076.69;5031758;28;19920;-65
2023/06/20 03:59:02;;;;;;;;;;;;;;;20.48;61.18;101081.28;5038899;28;19913;-64
2023/06/20 04:01:27;;;;;;;;;;;;;;;20.47;61.32;101071.53;5041763;28;19917;-65
2023/06/20 04:03:53;;;;;;;;;;;;;;;20.44;61.44;101077.41;5034827;28;20000;-65
2023/06/20 04:06:18;;;;;;;;;;;;;;;20.38;61.76;101079.13;5033290;28;19924;-64
2023/06/20 04:08:45;;;;;;;;;;;;;;;20.35;61.51;101081.44;5033629;28;20041;-65
2023/06/20 04:11:10;;;;;;;;;;;;;;;20.36;61.77;101083.09;5038143;28;19920;-65
2023/06/20 04:13:35;;;;;;;;;;;;;;;20.34;61.46;101083.31;5041439;28;19939;-65
2023/06/20 04:16:00;;;;;;;;;;;;;;;20.32;61.84;101090.00;5027608;28;19944;-66
2023/06/20 04:18:26;;;;;;;;;;;;;;;20.26;62.14;101090.91;5037727;28;19928;-66
2023/06/20 04:20:51;;;;;;;;;;;;;;;20.21;61.99;101096.16;5043836;28;19951;-66
2023/06/20 04:23:16;;;;;;;;;;;;;;;20.21;62.13;101082.66;5035488;28;19925;-66
2023/06/20 04:25:41;;;;;;;;;;;;;;;20.23;62.42;101084.06;5026680;28;19916;-66
2023/06/20 04:28:06;;;;;;;;;;;;;;;20.26;62.53;101086.34;5044458;28;20039;-65
2023/06/20 04:30:31;;;;;;;;;;;;;;;20.25;62.46;101083.88;5032460;28;20019;-65
2023/06/20 04:32:57;;;;;;;;;;;;;;;20.26;62.63;101080.94;5037305;28;19917;-65
2023/06/20 04:35:22;;;;;;;;;;;;;;;20.30;62.79;101065.97;5038530;28;19987;-65
2023/06/20 04:37:54;;;;;;;;;;;;;;;20.34;62.69;101071.72;5036010;28;19917;-65
2023/06/20 04:40:19;;;;;;;;;;;;;;;20.36;62.93;101066.91;5034022;28;19913;-65
2023/06/20 04:42:47;;;;;;;;;;;;;;;20.39;63.00;101074.53;5041963;28;20483;-65
2023/06/20 04:45:12;;;;;;;;;;;;;;;20.41;62.97;101073.28;5029995;28;19925;-65
2023/06/20 04:47:37;;;;;;;;;;;;;;;20.44;63.17;101072.00;5027214;28;19924;-65
2023/06/20 04:50:03;;;;;;;;;;;;;;;20.47;63.05;101070.72;5028665;28;20290;-65
2023/06/20 04:52:32;;;;;;;;;;;;;;;20.50;63.68;101068.38;5035729;28;20004;-65
2023/06/20 04:55:02;;;;;;;;;;;;;;;20.55;63.98;101062.31;5038547;28;19929;-65
2023/06/20 04:57:30;;;;;;;;;;;;;;;20.59;64.17;101050.81;5031224;28;19927;-65
2023/06/20 04:59:56;;;;;;;;;;;;;;;20.59;64.47;101061.63;5031302;28;19913;-65
2023/06/20 05:02:21;;;;;;;;;;;;;;;20.59;64.58;101058.91;5037092;28;20297;-65
2023/06/20 05:04:46;;;;;;;;;;;;;;;20.64;64.07;101067.13;5039516;28;19921;-65
2023/06/20 05:07:11;;;;;;;;;;;;;;;20.64;64.20;101055.53;5028828;28;19913;-67
2023/06/20 05:09:36;;;;;;;;;;;;;;;20.69;64.06;101047.53;5032304;28;20117;-67
2023/06/20 05:12:02;;;;;;;;;;;;;;;20.77;64.03;101046.38;5043224;28;20365;-67
2023/06/20 05:14:27;;;;;;;;;;;;;;;20.85;63.80;101043.34;5040719;28;19969;-65
2023/06/20 05:16:52;;;;;;;;;;;;;;;20.93;64.00;101054.63;5039850;28;20600;-65
2023/06/20 05:19:17;;;;;;;;;;;;;;;21.00;63.30;101051.81;5034292;28;20072;-65
2023/06/20 05:21:42;;;;;;;;;;;;;;;21.06;63.51;101040.06;5035254;28;20329;-65
2023/06/20 05:24:08;;;;;;;;;;;;;;;21.12;63.66;101039.16;5028613;28;19963;-65
2023/06/20 05:26:33;;;;;;;;;;;;;;;21.17;63.30;101031.16;5034573;28;20457;-65
2023/06/20 05:28:58;;;;;;;;;;;;;;;21.24;63.39;101023.78;5036165;28;19921;-65
2023/06/20 05:31:24;;;;;;;;;;;;;;;21.32;63.61;101015.28;5036443;28;20047;-67
2023/06/20 05:33:49;;;;;;;;;;;;;;;21.41;62.97;101017.66;5034494;28;20011;-66
2023/06/20 05:36:15;;;;;;;;;;;;;;;21.48;63.10;101021.84;5029943;28;20063;-66
2023/06/20 05:38:40;;;;;;;;;;;;;;;21.53;63.10;101026.53;5039630;28;19928;-66
2023/06/20 05:41:05;;;;;;;;;;;;;;;21.65;63.02;101021.91;5039253;28;19917;-66
2023/06/20 05:43:30;;;;;;;;;;;;;;;21.73;62.86;101016.16;5042202;28;19917;-66
2023/06/20 05:45:56;;;;;;;;;;;;;;;21.80;62.46;101010.59;5044432;28;19973;-66
2023/06/20 05:48:24;;;;;;;;;;;;;;;21.86;62.41;101010.47;5035991;28;19921;-66
2023/06/20 05:50:51;;;;;;;;;;;;;;;21.95;62.58;101010.88;5035389;28;19916;-66
2023/06/20 05:53:16;;;;;;;;;;;;;;;22.00;62.25;101008.31;5034101;28;19933;-66
2023/06/20 05:55:43;;;;;;;;;;;;;;;22.06;62.48;101010.06;5041863;28;19981;-66
2023/06/20 05:58:08;;;;;;;;;;;;;;;22.13;62.34;101009.91;5039420;28;19923;-66
2023/06/20 06:00:33;;;;;;;;;;;;;;;22.18;62.29;101010.81;5028308;28;20003;-66
2023/06/20 06:02:58;;;;;;;;;;;;;;;22.24;62.21;101025.25;5035602;28;19924;-66
2023/06/20 06:05:23;;;;;;;;;;;;;;;22.26;61.98;101020.41;5037919;28;19917;-66
2023/06/20 06:07:49;;;;;;;;;;;;;;;22.30;61.85;101032.41;5034722;28;19928;-59
2023/06/20 06:10:14;;;;;;;;;;;;;;;22.33;62.16;101028.41;5027500;28;20287;-61
2023/06/20 06:12:40;;;;;;;;;;;;;;;22.37;62.40;101032.25;5040999;28;19971;-61
2023/06/20 06:15:07;;;;;;;;;;;;;;;22.41;62.38;101028.81;5041641;28;19928;-61
2023/06/20 06:17:32;;;;;;;;;;;;;;;22.46;61.92;101034.31;5030804;28;20000;-61
2023/06/20 06:19:58;;;;;;;;;;;;;;;22.49;61.83;101031.13;5043811;28;20019;-61
2023/06/20 06:22:23;;;;;;;;;;;;;;;22.51;61.75;101037.09;5036791;28;20427;-61
2023/06/20 06:24:48;;;;;;;;;;;;;;;22.54;61.92;101028.47;5044313;28;20007;-61
2023/06/20 06:27:14;;;;;;;;;;;;;;;22.59;61.97;101026.97;5026276;28;20389;-61
2023/06/20 06:29:39;;;;;;;;;;;;;;;22.62;62.24;101024.56;5039506;28;19921;-61
2023/06/20 06:32:05;;;;;;;;;;;;;;;22.67;62.52;101024.66;5043540;28;19935;-61
2023/06/20 06:34:31;;;;;;;;;;;;;;;22.70;62.02;101031.47;5027859;28;19924;-61
2023/06/20 06:36:56;;;;;;;;;;;;;;;22.71;61.84;101033.91;5035690;28;19921;-61
2023/06/20 06:39:21;;;;;;;;;;;;;;;22.73;61.54;101039.91;5033749;28;19998;-61
2023/06/20 06:41:47;;;;;;;;;;;;;;;22.75;61.61;101037.78;5033044;28;20557;-60
2023/06/20 06:44:13;;;;;;;;;;;;;;;22.78;61.91;101037.28;5034060;28;19947;-61
2023/06/20 06:46:38;;;;;;;;;;;;;;;22.81;62.15;101034.09;5037452;28;20374;-61
2023/06/20 06:49:03;;;;;;;;;;;;;;;22.85;62.13;101034.47;5035690;28;19952;-62
2023/06/20 06:51:29;;;;;;;;;;;;;;;22.86;62.08;101039.63;5038318;28;19978;-61
2023/06/20 06:53:54;;;;;;;;;;;;;;;22.88;62.29;101038.56;5031879;28;19917;-61
2023/06/20 06:56:19;;;;;;;;;;;;;;;22.90;62.22;101042.66;5039254;28;20011;-61
2023/06/20 06:58:44;;;;;;;;;;;;;;;22.89;62.26;101035.59;5035325;28;20378;-61
2023/06/20 07:01:10;;;;;;;;;;;;;;;22.91;62.28;101038.06;5044034;28;19956;-61
2023/06/20 07:03:35;;;;;;;;;;;;;;;22.94;62.13;101038.38;5032269;28;19917;-61
2023/06/20 07:06:00;;;;;;;;;;;;;;;22.99;62.46;101035.75;5043138;28;19917;-61
2023/06/20 07:08:25;;;;;;;;;;;;;;;23.03;62.61;101026.06;5042914;28;19985;-61
2023/06/20 07:10:51;;;;;;;;;;;;;;;23.09;62.36;101026.94;5036156;28;19917;-61
2023/06/20 07:13:17;;;;;;;;;;;;;;;23.15;62.46;101024.06;5046535;28;19925;-61
2023/06/20 07:15:42;;;;;;;;;;;;;;;23.24;62.38;101021.75;5032916;28;19952;-61
2023/06/20 07:18:08;;;;;;;;;;;;;;;23.30;62.60;101023.44;5041941;28;19924;-61
2023/06/20 07:20:33;;;;;;;;;;;;;;;23.36;62.55;101024.34;5044380;28;20372;-61
2023/06/20 07:22:58;;;;;;;;;;;;;;;23.44;62.55;101016.63;5033465;28;20006;-61
2023/06/20 07:25:24;;;;;;;;;;;;;;;23.51;62.20;101019.13;5041202;28;19921;-61
2023/06/20 07:27:49;;;;;;;;;;;;;;;23.58;62.48;101008.13;5045047;28;20444;-61
2023/06/20 07:30:14;;;;;;;;;;;;;;;23.63;61.90;101008.19;5036626;28;19917;-61
2023/06/20 07:32:39;;;;;;;;;;;;;;;23.64;61.17;100999.78;5032011;28;20298;-61
2023/06/20 07:35:05;;;;;;;;;;;;;;;23.68;62.14;101003.63;5039756;28;20374;-61
2023/06/20 07:37:30;;;;;;;;;;;;;;;23.74;61.77;101002.63;5040039;28;19917;-61
2023/06/20 07:39:55;;;;;;;;;;;;;;;23.78;61.42;101009.19;5037704;28;20004;-61
2023/06/20 07:42:20;;;;;;;;;;;;;;;23.83;61.77;101004.88;5040581;28;20297;-61
2023/06/20 07:44:45;;;;;;;;;;;;;;;23.88;61.60;101010.38;5037123;28;19956;-61
2023/06/20 07:47:13;;;;;;;;;;;;;;;23.89;61.31;101001.16;5035084;28;19971;-61
2023/06/20 07:49:38;;;;;;;;;;;;;;;23.90;61.53;100994.66;5037758;28;20293;-61
2023/06/20 07:52:04;;;;;;;;;;;;;;;23.96;61.91;100982.78;5037101;28;19917;-61
2023/06/20 07:54:30;;;;;;;;;;;;;;;24.04;61.27;100987.75;5034914;28;19921;-61
2023/06/20 07:56:56;;;;;;;;;;;;;;;24.11;61.24;100982.94;5034613;28;19923;-61
2023/06/20 07:59:21;;;;;;;;;;;;;;;24.17;61.50;100992.75;5037333;28;19913;-61
2023/06/20 08:01:46;;;;;;;;;;;;;;;24.24;61.94;100996.06;5035203;28;19921;-61
2023/06/20 08:04:11;;;;;;;;;;;;;;;24.33;61.75;101004.63;5035987;28;19920;-61
2023/06/20 08:06:36;;;;;;;;;;;;;;;24.40;61.79;101002.50;5035098;28;19956;-61
2023/06/20 08:09:02;;;;;;;;;;;;;;;24.47;61.00;101007.72;5040738;28;19963;-62
2023/06/20 08:11:29;;;;;;;;;;;;;;;24.52;59.94;101002.31;5028732;28;19917;-61
2023/06/20 08:13:54;;;;;;;;;;;;;;;24.53;60.15;101009.38;5045699;28;20378;-61
2023/06/20 08:16:19;;;;;;;;;;;;;;;24.56;60.26;101008.88;5035859;28;19920;-61
2023/06/20 08:18:45;;;;;;;;;;;;;;;24.61;59.78;101004.31;5041882;28;19984;-60
2023/06/20 08:21:10;;;;;;;;;;;;;;;24.68;59.58;100994.06;5032949;28;19932;-61
2023/06/20 08:23:35;;;;;;;;;;;;;;;24.77;60.08;100991.66;5035106;28;19928;-61
2023/06/20 08:26:00;;;;;;;;;;;;;;;24.86;60.33;100987.38;5037685;28;19921;-61
2023/06/20 08:28:26;;;;;;;;;;;;;;;24.94;60.21;100992.34;5032820;28;19920;-61
2023/06/20 08:30:51;;;;;;;;;;;;;;;25.02;59.93;100994.56;5034661;28;19983;-61
2023/06/20 08:33:17;;;;;;;;;;;;;;;25.09;59.74;100997.06;5044760;28;20321;-61
2023/06/20 08:35:42;;;;;;;;;;;;;;;25.19;59.75;101005.28;5042289;28;19928;-61
2023/06/20 08:38:09;;;;;;;;;;;;;;;25.32;59.44;101007.50;5042792;28;19917;-60
2023/06/20 08:40:34;;;;;;;;;;;;;;;25.39;59.18;101012.72;5039747;28;20294;-60
2023/06/20 08:43:00;;;;;;;;;;;;;;;25.47;58.87;100995.91;5037043;28;20397;-61
2023/06/20 08:45:25;;;;;;;;;;;;;;;25.52;58.97;101003.25;5037307;28;19921;-61
2023/06/20 08:47:50;;;;;;;;;;;;;;;25.60;58.79;100994.56;5032751;28;20344;-61
2023/06/20 08:50:15;;;;;;;;;;;;;;;25.65;58.37;100997.31;5039733;28;19978;-61
2023/06/20 08:52:46;;;;;;;;;;;;;;;25.69;58.75;100995.72;5038994;28;19913;-61
2023/06/20 08:55:12;;;;;;;;;;;;;;;25.81;58.69;100998.22;5032044;28;19943;-61
2023/06/20 08:57:37;;;;;;;;;;;;;;;25.82;57.89;100994.41;5032727;28;19928;-61
2023/06/20 09:00:04;;;;;;;;;;;;;;;25.86;57.96;100996.31;5040768;28;19917;-61
2023/06/20 09:02:29;;;;;;;;;;;;;;;25.96;57.57;101002.88;5028607;28;19917;-61
2023/06/20 09:05:02;;;;;;;;;;;;;;;26.04;57.52;100999.66;5029342;28;19917;-61
2023/06/20 09:07:33;;;;;;;;;;;;;;;26.15;57.39;100993.13;5047053;28;19926;-61
2023/06/20 09:09:59;;;;;;;;;;;;;;;26.27;57.06;100988.22;5033754;28;19921;-62
2023/06/20 09:12:24;;;;;;;;;;;;;;;26.35;57.10;100982.28;5035611;28;19985;-61
2023/06/20 09:14:50;;;;;;;;;;;;;;;26.50;56.48;100984.16;5030049;28;19931;-61
2023/06/20 09:17:15;;;;;;;;;;;;;;;26.54;56.25;100985.25;5034225;28;19921;-60
2023/06/20 09:19:42;;;;;;;;;;;;;;;26.49;56.27;100986.06;5038421;28;19948;-62
2023/06/20 09:22:09;;;;;;;;;;;;;;;26.53;56.45;100997.25;5043531;28;19917;-61
2023/06/20 09:24:44;;;;;;;;;;;;;;;26.58;55.97;100997.22;5035821;28;20378;-61
2023/06/20 09:27:10;;;;;;;;;;;;;;;26.57;56.27;101000.22;5037310;28;19920;-61
2023/06/20 09:29:47;;;;;;;;;;;;;;;26.65;56.33;100997.78;5038551;28;20356;-61
2023/06/20 09:32:18;;;;;;;;;;;;;;;26.75;55.56;100994.25;5044863;28;19917;-61
2023/06/20 09:34:43;;;;;;;;;;;;;;;26.78;55.20;100996.41;5041966;28;20428;-61
2023/06/20 09:37:08;;;;;;;;;;;;;;;26.79;54.97;100996.13;5037671;28;19916;-61
2023/06/20 09:39:33;;;;;;;;;;;;;;;26.86;55.15;101006.75;5033119;28;19913;-61
2023/06/20 09:41:59;;;;;;;;;;;;;;;26.89;55.01;100997.19;5041209;28;20023;-61
2023/06/20 09:44:25;;;;;;;;;;;;;;;26.86;54.89;101009.47;5030690;28;19916;-62
2023/06/20 09:46:50;;;;;;;;;;;;;;;26.70;54.62;101005.97;5035586;28;19921;-63
2023/06/20 09:49:16;;;;;;;;;;;;;;;26.69;55.02;100995.34;5035254;28;19917;-62
2023/06/20 09:51:44;;;;;;;;;;;;;;;26.89;54.89;100994.47;5036644;28;19932;-62
2023/06/20 09:54:11;;;;;;;;;;;;;;;27.08;55.31;101003.75;5032716;28;19924;-62
2023/06/20 09:56:44;;;;;;;;;;;;;;;27.21;54.74;100999.63;5039331;28;19917;-61
2023/06/20 09:59:11;;;;;;;;;;;;;;;27.25;54.23;100998.78;5035484;28;19913;-62
2023/06/20 10:01:38;;;;;;;;;;;;;;;27.35;54.07;100996.03;5040483;28;20003;-62
2023/06/20 10:04:03;;;;;;;;;;;;;;;27.38;54.09;101003.66;5030251;28;20357;-62
2023/06/20 10:06:29;;;;;;;;;;;;;;;27.46;53.25;101011.25;5041160;28;19921;-62
2023/06/20 10:08:55;;;;;;;;;;;;;;;27.20;52.63;100993.38;5032516;28;19920;-62
2023/06/20 10:11:20;;;;;;;;;;;;;;;27.24;53.46;100991.72;5033062;28;20397;-62
2023/06/20 10:13:46;;;;;;;;;;;;;;;27.39;53.57;100983.47;5031224;28;19964;-62
2023/06/20 10:16:11;;;;;;;;;;;;;;;27.64;53.06;100984.47;5029658;28;19924;-61
2023/06/20 10:18:37;;;;;;;;;;;;;;;27.87;52.91;100994.72;5033038;28;19917;-62
2023/06/20 10:21:29;;;;;;;;;;;;;;;27.99;52.27;100984.25;5029724;28;20007;-62
2023/06/20 10:23:56;;;;;;;;;;;;;;;28.07;52.33;100972.75;5026386;28;19925;-62
2023/06/20 10:26:23;;;;;;;;;;;;;;;28.20;51.38;100986.84;5042709;28;19925;-62
2023/06/20 10:28:55;;;;;;;;;;;;;;;28.13;51.34;100984.44;5031342;28;19914;-62
2023/06/20 10:31:21;;;;;;;;;;;;;;;28.26;51.91;100972.91;5031232;28;19952;-62
2023/06/20 10:33:47;;;;;;;;;;;;;;;28.38;51.69;100969.81;5045098;28;20007;-61
2023/06/20 10:36:12;;;;;;;;;;;;;;;28.51;50.22;100963.69;5048099;28;19924;-61
2023/06/20 10:38:50;;;;;;;;;;;;;;;28.58;49.46;100966.88;5047017;28;20014;-62
2023/06/20 10:41:28;;;;;;;;;;;;;;;28.53;50.12;100969.66;5052982;28;19928;-61
2023/06/20 10:44:00;;;;;;;;;;;;;;;28.66;50.07;100960.81;5036927;28;19913;-62
2023/06/20 10:46:43;;;;;;;;;;;;;;;28.79;50.07;100956.56;5032744;28;19924;-61
2023/06/20 10:49:09;;;;;;;;;;;;;;;28.89;48.88;100950.19;5033075;28;19952;-62
2023/06/20 10:51:43;;;;;;;;;;;;;;;28.98;49.08;100943.81;5039196;28;19991;-62
2023/06/20 10:54:09;;;;;;;;;;;;;;;29.01;46.63;100941.59;5046542;28;19947;-61
2023/06/20 10:56:34;;;;;;;;;;;;;;;28.85;45.20;100932.75;5034887;28;20411;-62
2023/06/20 10:59:07;;;;;;;;;;;;;;;28.82;45.78;100931.38;5030971;28;20528;-61
2023/06/20 11:01:33;;;;;;;;;;;;;;;28.86;45.73;100931.66;5035769;28;19921;-61
2023/06/20 11:03:58;;;;;;;;;;;;;;;28.84;45.85;100923.72;5047494;28;19920;-61
2023/06/20 11:06:28;;;;;;;;;;;;;;;28.97;46.85;100919.50;5040130;28;19932;-62
2023/06/20 11:08:54;;;;;;;;;;;;;;;29.12;46.17;100923.97;5045180;28;19928;-62
2023/06/20 11:11:29;;;;;;;;;;;;;;;29.20;45.79;100913.22;5035784;28;19917;-62
2023/06/20 11:13:54;;;;;;;;;;;;;;;29.35;46.60;100914.09;5030937;28;19996;-62
2023/06/20 11:16:20;;;;;;;;;;;;;;;29.61;46.30;100912.66;5016136;28;20063;-62
2023/06/20 11:18:45;;;;;;;;;;;;;;;29.80;45.67;100916.22;5034152;28;19917;-62
2023/06/20 11:21:10;;;;;;;;;;;;;;;29.98;45.66;100917.28;5044052;28;19925;-61
2023/06/20 11:23:36;;;;;;;;;;;;;;;29.96;45.26;100913.22;5045127;28;19925;-62
2023/06/20 11:26:01;;;;;;;;;;;;;;;29.77;44.28;100916.78;5041530;28;19917;-61
2023/06/20 11:28:26;;;;;;;;;;;;;;;29.59;44.76;100915.72;5037392;28;19920;-62
2023/06/20 11:30:52;;;;;;;;;;;;;;;29.52;44.75;100906.25;5035035;28;19919;-61
2023/06/20 11:33:17;;;;;;;;;;;;;;;29.52;45.09;100909.78;5034067;28;19925;-61
2023/06/20 11:35:47;;;;;;;;;;;;;;;29.48;43.69;100899.72;5042800;28;19921;-68
2023/06/20 11:38:13;;;;;;;;;;;;;;;29.37;43.29;100900.94;5042032;28;20360;-68
2023/06/20 11:40:39;;;;;;;;;;;;;;;29.31;43.55;100908.41;5035635;28;20002;-67
2023/06/20 11:43:05;;;;;;;;;;;;;;;29.31;44.07;100902.94;5030378;28;20530;-67
2023/06/20 11:45:31;;;;;;;;;;;;;;;29.29;43.36;100908.69;5041124;28;19921;-68
2023/06/20 11:48:06;;;;;;;;;;;;;;;29.20;43.01;100904.16;5042486;28;19917;-67
2023/06/20 11:50:32;;;;;;;;;;;;;;;29.29;43.58;100899.69;5042604;28;20393;-67
2023/06/20 11:52:57;;;;;;;;;;;;;;;29.67;43.35;100899.72;5040470;28;19921;-68
2023/06/20 11:55:41;;;;;;;;;;;;;;;30.01;43.59;100905.75;5036641;28;19928;-68
2023/06/20 11:58:07;;;;;;;;;;;;;;;30.22;41.62;100900.78;5044965;28;19944;-68
2023/06/20 12:00:32;;;;;;;;;;;;;;;30.30;41.36;100894.59;5029458;28;19920;-68
2023/06/20 12:02:58;;;;;;;;;;;;;;;30.42;41.42;100885.91;5033813;28;19921;-68
2023/06/20 12:05:30;;;;;;;;;;;;;;;30.51;40.84;100898.59;5037781;28;20401;-67
2023/06/20 12:07:55;;;;;;;;;;;;;;;30.31;39.16;100898.16;5047100;28;19999;-67
2023/06/20 12:10:24;;;;;;;;;;;;;;;30.13;40.49;100903.41;5031947;28;20658;-68
2023/06/20 12:12:49;;;;;;;;;;;;;;;30.34;40.98;100895.63;5043017;28;20530;-68
2023/06/20 12:15:14;;;;;;;;;;;;;;;30.49;40.23;100892.59;5043299;28;19936;-68
2023/06/20 12:17:39;;;;;;;;;;;;;;;30.43;39.89;100895.75;5041206;28;19917;-64
2023/06/20 12:20:05;;;;;;;;;;;;;;;30.47;40.02;100892.09;5039741;28;19924;-64
2023/06/20 12:22:30;;;;;;;;;;;;;;;30.43;39.98;100891.09;5038314;28;21895;-66
2023/06/20 12:24:55;;;;;;;;;;;;;;;30.44;39.56;100884.50;5033702;28;19917;-65
2023/06/20 12:27:21;;;;;;;;;;;;;;;30.49;39.12;100889.06;5039245;28;19931;-65
2023/06/20 12:29:46;;;;;;;;;;;;;;;30.24;39.23;100887.59;5042303;28;19917;-65
2023/06/20 12:32:11;;;;;;;;;;;;;;;30.14;39.55;100888.59;5029132;28;20535;-65
2023/06/20 12:34:36;;;;;;;;;;;;;;;30.15;39.17;100886.66;5039634;28;19925;-65
2023/06/20 12:37:01;;;;;;;;;;;;;;;30.08;39.32;100891.72;5039554;28;19917;-65
2023/06/20 12:39:26;;;;;;;;;;;;;;;30.03;39.67;100889.84;5034996;28;19920;-65
2023/06/20 12:41:51;;;;;;;;;;;;;;;30.09;39.43;100880.47;5039483;28;20046;-65
2023/06/20 12:44:17;;;;;;;;;;;;;;;30.19;39.21;100877.53;5038136;28;19923;-66
2023/06/20 12:46:42;;;;;;;;;;;;;;;30.29;39.40;100860.09;5028409;28;20281;-65
2023/06/20 12:49:07;;;;;;;;;;;;;;;30.56;39.32;100861.25;5037176;28;20007;-66
2023/06/20 12:51:35;;;;;;;;;;;;;;;30.81;39.85;100855.28;5038955;28;19992;-68
2023/06/20 12:54:01;;;;;;;;;;;;;;;30.94;40.04;100850.88;5031651;28;20066;-67
2023/06/20 12:56:26;;;;;;;;;;;;;;;31.15;39.42;100860.31;5043579;28;20007;-67
2023/06/20 12:58:51;;;;;;;;;;;;;;;31.16;37.86;100858.38;5031200;28;19923;-67
2023/06/20 13:01:16;;;;;;;;;;;;;;;31.05;37.90;100855.06;5032239;28;19921;-67
2023/06/20 13:03:41;;;;;;;;;;;;;;;31.21;37.38;100855.56;5032270;28;20036;-67
2023/06/20 13:06:07;;;;;;;;;;;;;;;31.45;37.47;100858.84;5043227;28;19923;-67
2023/06/20 13:08:32;;;;;;;;;;;;;;;31.49;37.81;100850.78;5045621;28;19931;-67
2023/06/20 13:10:57;;;;;;;;;;;;;;;31.47;37.54;100850.28;5035661;28;20470;-67
2023/06/20 13:13:23;;;;;;;;;;;;;;;31.33;37.41;100844.88;5039804;28;19916;-68
2023/06/20 13:15:48;;;;;;;;;;;;;;;31.19;38.17;100844.06;5032967;28;19927;-68
2023/06/20 13:18:13;;;;;;;;;;;;;;;31.03;37.43;100852.63;5039225;28;19921;-68
2023/06/20 13:20:38;;;;;;;;;;;;;;;30.86;37.54;100835.16;5038908;28;19925;-68
2023/06/20 13:23:03;;;;;;;;;;;;;;;30.99;37.79;100826.13;5035271;28;19917;-68
2023/06/20 13:25:29;;;;;;;;;;;;;;;31.07;37.78;100828.94;5030473;28;19944;-69
2023/06/20 13:27:55;;;;;;;;;;;;;;;31.27;37.82;100822.22;5033548;28;19917;-68
2023/06/20 13:30:20;;;;;;;;;;;;;;;31.31;37.08;100823.22;5031409;28;20004;-69
2023/06/20 13:32:46;;;;;;;;;;;;;;;31.43;37.41;100819.91;5037395;28;20040;-69
2023/06/20 13:35:12;;;;;;;;;;;;;;;31.49;36.50;100821.41;5038077;28;19925;-69
2023/06/20 13:37:37;;;;;;;;;;;;;;;31.39;37.05;100808.75;5034088;28;19921;-69
2023/06/20 13:40:12;;;;;;;;;;;;;;;31.45;37.41;100812.19;5034386;28;19917;-69
2023/06/20 13:42:41;;;;;;;;;;;;;;;31.49;37.24;100806.88;5044077;28;19929;-69
2023/06/20 13:45:08;;;;;;;;;;;;;;;31.60;36.74;100797.28;5030212;28;19913;-69
2023/06/20 13:47:33;;;;;;;;;;;;;;;31.65;37.33;100800.72;5033261;28;20516;-70
2023/06/20 13:49:58;;;;;;;;;;;;;;;31.65;36.53;100794.41;5035102;28;19967;-69
2023/06/20 13:52:23;;;;;;;;;;;;;;;31.84;37.03;100797.00;5041679;28;19920;-68
2023/06/20 13:54:48;;;;;;;;;;;;;;;31.93;36.67;100795.09;5045265;28;20103;-69
2023/06/20 13:57:14;;;;;;;;;;;;;;;31.95;36.09;100798.34;5027843;28;19959;-69
2023/06/20 13:59:39;;;;;;;;;;;;;;;31.86;36.03;100786.50;5039091;28;19917;-69
2023/06/20 14:02:04;;;;;;;;;;;;;;;31.81;37.36;100786.63;5038119;28;20491;-69
2023/06/20 14:04:29;;;;;;;;;;;;;;;31.84;36.89;100791.50;5044649;28;20298;-69
2023/06/20 14:06:55;;;;;;;;;;;;;;;31.67;36.37;100783.91;5042491;28;19917;-69
2023/06/20 14:09:21;;;;;;;;;;;;;;;31.41;36.73;100779.06;5036219;28;19917;-70
2023/06/20 14:11:46;;;;;;;;;;;;;;;31.17;37.29;100774.97;5038933;28;19924;-69
2023/06/20 14:14:11;;;;;;;;;;;;;;;30.97;37.27;100765.28;5036679;28;20395;-69
2023/06/20 14:16:37;;;;;;;;;;;;;;;30.73;37.97;100768.25;5043562;28;20004;-69
2023/06/20 14:19:02;;;;;;;;;;;;;;;30.60;38.66;100760.81;5036031;28;20650;-69
2023/06/20 14:21:27;;;;;;;;;;;;;;;30.60;39.00;100763.56;5043151;28;19951;-69
2023/06/20 14:23:52;;;;;;;;;;;;;;;30.59;38.76;100761.94;5035425;28;19913;-69
2023/06/20 14:26:19;;;;;;;;;;;;;;;30.54;38.75;100762.88;5042367;28;19923;-69
2023/06/20 14:28:45;;;;;;;;;;;;;;;30.45;38.98;100768.25;5034215;28;19917;-69
2023/06/20 14:31:10;;;;;;;;;;;;;;;30.29;39.17;100769.66;5038230;28;19924;-69
2023/06/20 14:33:35;;;;;;;;;;;;;;;30.17;39.13;100761.16;5040691;28;20103;-69
2023/06/20 14:36:00;;;;;;;;;;;;;;;30.13;39.62;100760.94;5036884;28;19972;-70
2023/06/20 14:38:25;;;;;;;;;;;;;;;30.13;39.84;100760.13;5032494;28;20016;-69
2023/06/20 14:40:51;;;;;;;;;;;;;;;30.12;39.71;100751.09;5041753;28;19924;-69
2023/06/20 14:43:16;;;;;;;;;;;;;;;30.10;39.39;100755.28;5036653;28;19944;-70
2023/06/20 14:45:41;;;;;;;;;;;;;;;29.98;39.62;100754.91;5032415;28;20011;-69
2023/06/20 14:48:07;;;;;;;;;;;;;;;29.85;39.87;100746.38;5040804;28;19916;-69
2023/06/20 14:50:33;;;;;;;;;;;;;;;29.81;40.32;100780.94;5041866;28;20654;-69
2023/06/20 14:52:58;;;;;;;;;;;;;;;29.57;40.52;100815.84;5045496;28;19958;-69
2023/06/20 14:55:23;;;;;;;;;;;;;;;28.59;41.30;100818.22;5037226;28;20386;-69
2023/06/20 14:57:48;;;;;;;;;;;;;;;27.73;43.97;100846.31;5046529;28;19917;-69
2023/06/20 15:00:14;;;;;;;;;;;;;;;26.69;46.80;100867.28;5039929;28;19920;-68
2023/06/20 15:02:45;;;;;;;;;;;;;;;24.35;55.43;100880.31;5033522;28;19917;-70
2023/06/20 15:05:10;;;;;;;;;;;;;;;22.14;60.61;100814.91;5045914;28;20524;-68
2023/06/20 15:07:36;;;;;;;;;;;;;;;21.23;64.61;100784.44;5036873;28;19932;-68
2023/06/20 15:10:02;;;;;;;;;;;;;;;21.00;69.01;100785.31;5034524;28;19916;-68
2023/06/20 15:12:27;;;;;;;;;;;;;;;20.89;70.58;100794.28;5038397;28;19994;-66
2023/06/20 15:14:52;;;;;;;;;;;;;;;20.71;72.20;100789.03;5041744;28;20015;-68
2023/06/20 15:17:17;;;;;;;;;;;;;;;20.53;70.80;100783.78;5038905;28;20142;-67
2023/06/20 15:19:44;;;;;;;;;;;;;;;20.39;73.32;100794.81;5042279;28;20004;-67
2023/06/20 15:22:09;;;;;;;;;;;;;;;20.33;74.84;100798.47;5029389;28;19956;-68
2023/06/20 15:24:35;;;;;;;;;;;;;;;20.19;73.04;100824.00;5039315;28;19956;-67
2023/06/20 15:27:00;;;;;;;;;;;;;;;20.15;78.58;100857.06;5043158;28;19921;-67
2023/06/20 15:29:25;;;;;;;;;;;;;;;20.11;81.52;100930.34;5035245;28;19939;-67
2023/06/20 15:31:50;;;;;;;;;;;;;;;20.08;80.25;100911.94;5037642;28;19917;-65
2023/06/20 15:34:15;;;;;;;;;;;;;;;20.21;80.15;100878.53;5031048;28;19967;-66
2023/06/20 15:36:40;;;;;;;;;;;;;;;20.44;83.35;100829.19;5030981;28;19928;-66
2023/06/20 15:39:06;;;;;;;;;;;;;;;20.62;84.91;100804.78;5030321;28;19941;-68
2023/06/20 15:41:31;;;;;;;;;;;;;;;20.81;84.73;100794.63;5045519;28;20024;-68
2023/06/20 15:43:56;;;;;;;;;;;;;;;20.87;84.05;100790.19;5037267;28;19920;-68
2023/06/20 15:46:22;;;;;;;;;;;;;;;20.91;85.27;100789.47;5044044;28;20301;-68
2023/06/20 15:48:55;;;;;;;;;;;;;;;21.00;85.82;100801.50;5040403;28;19924;-68
2023/06/20 15:51:21;;;;;;;;;;;;;;;20.90;81.62;100833.72;5029994;28;19921;-68
2023/06/20 15:53:46;;;;;;;;;;;;;;;20.67;79.19;100844.56;5030789;28;19944;-67